sensor_id;sensor_type;location;lat;lon;timestamp;P1;durP1;ratioP1;P2;durP2;ratioP2
12441;SDS011;6285;48.804;9.220;2023-03-29T00:01:31;2.83;;;2.00;;
12441;SDS011;6285;48.804;9.220;2023-03-29T00:04:00;2.88;;;2.13;;
12441;SDS011;6285;48.804;9.220;2023-03-29T00:06:27;2.33;;;1.92;;
12441;SDS011;6285;48.804;9.220;2023-03-29T00:08:57;2.03;;;1.80;;
12441;SDS011;6285;48.804;9.220;2023-03-29T00:11:24;3.78;;;2.15;;
12441;SDS011;6285;48.804;9.220;2023-03-29T00:13:51;2.00;;;1.90;;
12441;SDS011;6285;48.804;9.220;2023-03-29T00:16:20;3.65;;;2.28;;
12441;SDS011;6285;48.804;9.220;2023-03-29T00:18:47;3.42;;;2.20;;
12441;SDS011;6285;48.804;9.220;2023-03-29T00:21:14;2.53;;;2.08;;
12441;SDS011;6285;48.804;9.220;2023-03-29T00:23:42;2.65;;;2.17;;
12441;SDS011;6285;48.804;9.220;2023-03-29T00:26:10;2.53;;;2.25;;
12441;SDS011;6285;48.804;9.220;2023-03-29T00:28:37;3.00;;;2.35;;
12441;SDS011;6285;48.804;9.220;2023-03-29T00:31:05;3.75;;;2.35;;
12441;SDS011;6285;48.804;9.220;2023-03-29T00:33:34;3.80;;;2.47;;
12441;SDS011;6285;48.804;9.220;2023-03-29T00:36:01;4.18;;;2.42;;
12441;SDS011;6285;48.804;9.220;2023-03-29T00:38:29;5.82;;;2.50;;
12441;SDS011;6285;48.804;9.220;2023-03-29T00:40:56;4.60;;;2.60;;
12441;SDS011;6285;48.804;9.220;2023-03-29T00:43:23;3.10;;;2.55;;
12441;SDS011;6285;48.804;9.220;2023-03-29T00:45:50;4.07;;;2.60;;
12441;SDS011;6285;48.804;9.220;2023-03-29T00:48:18;3.78;;;3.10;;
12441;SDS011;6285;48.804;9.220;2023-03-29T00:50:48;5.65;;;3.58;;
12441;SDS011;6285;48.804;9.220;2023-03-29T00:53:17;6.65;;;3.80;;
12441;SDS011;6285;48.804;9.220;2023-03-29T00:55:46;6.55;;;3.90;;
12441;SDS011;6285;48.804;9.220;2023-03-29T00:58:17;5.22;;;3.08;;
12441;SDS011;6285;48.804;9.220;2023-03-29T01:00:47;6.40;;;3.33;;
12441;SDS011;6285;48.804;9.220;2023-03-29T01:03:16;5.80;;;3.40;;
12441;SDS011;6285;48.804;9.220;2023-03-29T01:05:52;3.50;;;2.85;;
12441;SDS011;6285;48.804;9.220;2023-03-29T01:08:21;3.40;;;2.63;;
12441;SDS011;6285;48.804;9.220;2023-03-29T01:10:51;3.67;;;2.70;;
12441;SDS011;6285;48.804;9.220;2023-03-29T01:13:21;3.95;;;2.70;;
12441;SDS011;6285;48.804;9.220;2023-03-29T01:15:51;4.18;;;3.13;;
12441;SDS011;6285;48.804;9.220;2023-03-29T01:18:19;4.47;;;2.58;;
12441;SDS011;6285;48.804;9.220;2023-03-29T01:20:52;5.40;;;2.88;;
12441;SDS011;6285;48.804;9.220;2023-03-29T01:23:34;3.63;;;2.90;;
12441;SDS011;6285;48.804;9.220;2023-03-29T01:26:07;6.47;;;3.00;;
12441;SDS011;6285;48.804;9.220;2023-03-29T01:28:39;3.95;;;2.88;;
12441;SDS011;6285;48.804;9.220;2023-03-29T01:31:09;3.88;;;2.60;;
12441;SDS011;6285;48.804;9.220;2023-03-29T01:33:38;4.03;;;2.70;;
12441;SDS011;6285;48.804;9.220;2023-03-29T01:36:08;3.35;;;2.80;;
12441;SDS011;6285;48.804;9.220;2023-03-29T01:38:39;3.67;;;2.60;;
12441;SDS011;6285;48.804;9.220;2023-03-29T01:41:08;4.30;;;2.78;;
12441;SDS011;6285;48.804;9.220;2023-03-29T01:43:37;5.10;;;2.72;;
12441;SDS011;6285;48.804;9.220;2023-03-29T01:46:10;5.25;;;2.97;;
12441;SDS011;6285;48.804;9.220;2023-03-29T01:48:41;3.45;;;3.00;;
12441;SDS011;6285;48.804;9.220;2023-03-29T01:51:13;3.33;;;2.78;;
12441;SDS011;6285;48.804;9.220;2023-03-29T01:53:41;4.05;;;2.75;;
12441;SDS011;6285;48.804;9.220;2023-03-29T01:56:12;5.30;;;2.88;;
12441;SDS011;6285;48.804;9.220;2023-03-29T01:58:41;4.53;;;2.90;;
12441;SDS011;6285;48.804;9.220;2023-03-29T02:01:11;4.07;;;2.67;;
12441;SDS011;6285;48.804;9.220;2023-03-29T02:03:43;5.32;;;3.03;;
12441;SDS011;6285;48.804;9.220;2023-03-29T02:06:14;4.22;;;2.72;;
12441;SDS011;6285;48.804;9.220;2023-03-29T02:08:42;4.20;;;2.53;;
12441;SDS011;6285;48.804;9.220;2023-03-29T02:11:10;3.60;;;2.50;;
12441;SDS011;6285;48.804;9.220;2023-03-29T02:13:38;2.72;;;2.40;;
12441;SDS011;6285;48.804;9.220;2023-03-29T02:16:06;4.07;;;3.03;;
12441;SDS011;6285;48.804;9.220;2023-03-29T02:18:37;5.20;;;3.00;;
12441;SDS011;6285;48.804;9.220;2023-03-29T02:21:05;3.45;;;2.80;;
12441;SDS011;6285;48.804;9.220;2023-03-29T02:23:34;4.35;;;2.80;;
12441;SDS011;6285;48.804;9.220;2023-03-29T02:26:03;4.22;;;2.70;;
12441;SDS011;6285;48.804;9.220;2023-03-29T02:28:32;3.75;;;3.35;;
12441;SDS011;6285;48.804;9.220;2023-03-29T02:31:01;3.67;;;2.47;;
12441;SDS011;6285;48.804;9.220;2023-03-29T02:33:30;4.07;;;2.55;;
12441;SDS011;6285;48.804;9.220;2023-03-29T02:36:00;3.80;;;2.45;;
12441;SDS011;6285;48.804;9.220;2023-03-29T02:38:28;3.45;;;2.33;;
12441;SDS011;6285;48.804;9.220;2023-03-29T02:40:56;4.43;;;2.10;;
12441;SDS011;6285;48.804;9.220;2023-03-29T02:43:24;2.40;;;2.20;;
12441;SDS011;6285;48.804;9.220;2023-03-29T02:45:52;3.60;;;2.35;;
12441;SDS011;6285;48.804;9.220;2023-03-29T02:48:20;3.25;;;2.33;;
12441;SDS011;6285;48.804;9.220;2023-03-29T02:50:50;4.00;;;2.65;;
12441;SDS011;6285;48.804;9.220;2023-03-29T02:53:21;4.55;;;3.08;;
12441;SDS011;6285;48.804;9.220;2023-03-29T02:55:50;5.13;;;2.97;;
12441;SDS011;6285;48.804;9.220;2023-03-29T02:58:17;4.07;;;2.95;;
12441;SDS011;6285;48.804;9.220;2023-03-29T03:00:52;4.25;;;3.50;;
12441;SDS011;6285;48.804;9.220;2023-03-29T03:03:19;5.72;;;2.92;;
12441;SDS011;6285;48.804;9.220;2023-03-29T03:05:46;5.13;;;3.47;;
12441;SDS011;6285;48.804;9.220;2023-03-29T03:08:15;6.70;;;3.30;;
12441;SDS011;6285;48.804;9.220;2023-03-29T03:10:44;5.03;;;3.60;;
12441;SDS011;6285;48.804;9.220;2023-03-29T03:13:11;5.68;;;3.38;;
12441;SDS011;6285;48.804;9.220;2023-03-29T03:15:38;5.32;;;3.53;;
12441;SDS011;6285;48.804;9.220;2023-03-29T03:18:07;5.95;;;3.78;;
12441;SDS011;6285;48.804;9.220;2023-03-29T03:20:34;6.35;;;3.30;;
12441;SDS011;6285;48.804;9.220;2023-03-29T03:23:01;5.28;;;3.70;;
12441;SDS011;6285;48.804;9.220;2023-03-29T03:25:28;5.78;;;3.85;;
12441;SDS011;6285;48.804;9.220;2023-03-29T03:27:57;5.88;;;3.60;;
12441;SDS011;6285;48.804;9.220;2023-03-29T03:30:25;4.90;;;3.58;;
12441;SDS011;6285;48.804;9.220;2023-03-29T03:32:52;4.97;;;3.65;;
12441;SDS011;6285;48.804;9.220;2023-03-29T03:35:20;5.25;;;4.15;;
12441;SDS011;6285;48.804;9.220;2023-03-29T03:37:47;5.78;;;3.20;;
12441;SDS011;6285;48.804;9.220;2023-03-29T03:40:14;5.20;;;3.42;;
12441;SDS011;6285;48.804;9.220;2023-03-29T03:42:42;6.45;;;3.35;;
12441;SDS011;6285;48.804;9.220;2023-03-29T03:45:10;4.60;;;3.30;;
12441;SDS011;6285;48.804;9.220;2023-03-29T03:47:37;7.45;;;3.72;;
12441;SDS011;6285;48.804;9.220;2023-03-29T03:50:05;6.68;;;3.35;;
12441;SDS011;6285;48.804;9.220;2023-03-29T03:52:33;4.82;;;3.20;;
12441;SDS011;6285;48.804;9.220;2023-03-29T03:55:00;4.47;;;2.70;;
12441;SDS011;6285;48.804;9.220;2023-03-29T03:57:28;6.95;;;3.10;;
12441;SDS011;6285;48.804;9.220;2023-03-29T03:59:57;5.43;;;3.40;;
12441;SDS011;6285;48.804;9.220;2023-03-29T04:02:25;4.78;;;2.95;;
12441;SDS011;6285;48.804;9.220;2023-03-29T04:04:52;8.73;;;3.47;;
12441;SDS011;6285;48.804;9.220;2023-03-29T04:07:19;4.93;;;2.90;;
12441;SDS011;6285;48.804;9.220;2023-03-29T04:09:49;6.32;;;3.28;;
12441;SDS011;6285;48.804;9.220;2023-03-29T04:12:17;4.18;;;3.40;;
12441;SDS011;6285;48.804;9.220;2023-03-29T04:14:44;3.75;;;3.10;;
12441;SDS011;6285;48.804;9.220;2023-03-29T04:17:12;6.57;;;2.95;;
12441;SDS011;6285;48.804;9.220;2023-03-29T04:19:40;5.93;;;3.25;;
12441;SDS011;6285;48.804;9.220;2023-03-29T04:22:07;6.68;;;3.15;;
12441;SDS011;6285;48.804;9.220;2023-03-29T04:24:34;5.15;;;3.00;;
12441;SDS011;6285;48.804;9.220;2023-03-29T04:27:01;8.40;;;3.95;;
12441;SDS011;6285;48.804;9.220;2023-03-29T04:29:28;4.43;;;2.70;;
12441;SDS011;6285;48.804;9.220;2023-03-29T04:31:55;5.22;;;3.17;;
12441;SDS011;6285;48.804;9.220;2023-03-29T04:34:22;5.15;;;2.95;;
12441;SDS011;6285;48.804;9.220;2023-03-29T04:36:51;4.80;;;3.30;;
12441;SDS011;6285;48.804;9.220;2023-03-29T04:39:18;3.67;;;3.03;;
12441;SDS011;6285;48.804;9.220;2023-03-29T04:41:45;6.03;;;3.13;;
12441;SDS011;6285;48.804;9.220;2023-03-29T04:44:12;4.07;;;2.80;;
12441;SDS011;6285;48.804;9.220;2023-03-29T04:46:40;7.50;;;3.13;;
12441;SDS011;6285;48.804;9.220;2023-03-29T04:49:07;6.22;;;2.85;;
12441;SDS011;6285;48.804;9.220;2023-03-29T04:51:34;7.93;;;3.13;;
12441;SDS011;6285;48.804;9.220;2023-03-29T04:54:02;6.55;;;3.28;;
12441;SDS011;6285;48.804;9.220;2023-03-29T04:56:29;6.28;;;2.90;;
12441;SDS011;6285;48.804;9.220;2023-03-29T04:58:57;6.03;;;3.15;;
12441;SDS011;6285;48.804;9.220;2023-03-29T05:01:24;4.53;;;2.80;;
12441;SDS011;6285;48.804;9.220;2023-03-29T05:03:51;5.40;;;2.83;;
12441;SDS011;6285;48.804;9.220;2023-03-29T05:06:18;4.75;;;3.20;;
12441;SDS011;6285;48.804;9.220;2023-03-29T05:08:45;10.20;;;3.40;;
12441;SDS011;6285;48.804;9.220;2023-03-29T05:11:14;9.52;;;3.60;;
12441;SDS011;6285;48.804;9.220;2023-03-29T05:13:41;10.13;;;3.38;;
12441;SDS011;6285;48.804;9.220;2023-03-29T05:16:08;6.38;;;3.03;;
12441;SDS011;6285;48.804;9.220;2023-03-29T05:18:36;7.97;;;3.00;;
12441;SDS011;6285;48.804;9.220;2023-03-29T05:21:03;2.97;;;2.42;;
12441;SDS011;6285;48.804;9.220;2023-03-29T05:23:31;3.15;;;2.38;;
12441;SDS011;6285;48.804;9.220;2023-03-29T05:25:59;4.72;;;3.05;;
12441;SDS011;6285;48.804;9.220;2023-03-29T05:28:28;4.82;;;2.80;;
12441;SDS011;6285;48.804;9.220;2023-03-29T05:30:58;5.60;;;2.55;;
12441;SDS011;6285;48.804;9.220;2023-03-29T05:33:25;9.48;;;4.00;;
12441;SDS011;6285;48.804;9.220;2023-03-29T05:35:57;4.50;;;2.70;;
12441;SDS011;6285;48.804;9.220;2023-03-29T05:38:25;6.20;;;2.83;;
12441;SDS011;6285;48.804;9.220;2023-03-29T05:40:52;5.53;;;2.58;;
12441;SDS011;6285;48.804;9.220;2023-03-29T05:43:19;5.57;;;2.50;;
12441;SDS011;6285;48.804;9.220;2023-03-29T05:45:47;5.75;;;3.20;;
12441;SDS011;6285;48.804;9.220;2023-03-29T05:48:15;2.72;;;2.08;;
12441;SDS011;6285;48.804;9.220;2023-03-29T05:50:45;7.55;;;2.53;;
12441;SDS011;6285;48.804;9.220;2023-03-29T05:53:12;6.45;;;2.45;;
12441;SDS011;6285;48.804;9.220;2023-03-29T05:55:39;4.00;;;2.20;;
12441;SDS011;6285;48.804;9.220;2023-03-29T05:58:07;4.70;;;2.30;;
12441;SDS011;6285;48.804;9.220;2023-03-29T06:00:36;6.10;;;2.45;;
12441;SDS011;6285;48.804;9.220;2023-03-29T06:03:05;4.45;;;2.35;;
12441;SDS011;6285;48.804;9.220;2023-03-29T06:05:33;5.00;;;1.98;;
12441;SDS011;6285;48.804;9.220;2023-03-29T06:08:01;4.85;;;1.83;;
12441;SDS011;6285;48.804;9.220;2023-03-29T06:10:28;5.72;;;2.05;;
12441;SDS011;6285;48.804;9.220;2023-03-29T06:12:55;2.42;;;1.80;;
12441;SDS011;6285;48.804;9.220;2023-03-29T06:15:22;3.65;;;2.10;;
12441;SDS011;6285;48.804;9.220;2023-03-29T06:17:49;5.03;;;2.10;;
12441;SDS011;6285;48.804;9.220;2023-03-29T06:20:17;4.25;;;1.70;;
12441;SDS011;6285;48.804;9.220;2023-03-29T06:22:45;5.10;;;2.13;;
12441;SDS011;6285;48.804;9.220;2023-03-29T06:25:13;3.40;;;2.08;;
12441;SDS011;6285;48.804;9.220;2023-03-29T06:27:41;4.63;;;1.92;;
12441;SDS011;6285;48.804;9.220;2023-03-29T06:30:11;5.97;;;1.77;;
12441;SDS011;6285;48.804;9.220;2023-03-29T06:32:38;2.85;;;2.10;;
12441;SDS011;6285;48.804;9.220;2023-03-29T06:35:06;3.28;;;1.92;;
12441;SDS011;6285;48.804;9.220;2023-03-29T06:37:34;8.45;;;5.30;;
12441;SDS011;6285;48.804;9.220;2023-03-29T06:40:03;5.88;;;2.65;;
12441;SDS011;6285;48.804;9.220;2023-03-29T06:42:30;2.88;;;2.20;;
12441;SDS011;6285;48.804;9.220;2023-03-29T06:44:58;4.68;;;2.97;;
12441;SDS011;6285;48.804;9.220;2023-03-29T06:47:24;8.30;;;2.13;;
12441;SDS011;6285;48.804;9.220;2023-03-29T06:49:54;4.55;;;2.50;;
12441;SDS011;6285;48.804;9.220;2023-03-29T06:52:21;4.43;;;2.13;;
12441;SDS011;6285;48.804;9.220;2023-03-29T06:54:49;6.78;;;2.05;;
12441;SDS011;6285;48.804;9.220;2023-03-29T06:57:16;4.13;;;2.13;;
12441;SDS011;6285;48.804;9.220;2023-03-29T06:59:43;5.78;;;2.53;;
12441;SDS011;6285;48.804;9.220;2023-03-29T07:02:10;4.63;;;1.80;;
12441;SDS011;6285;48.804;9.220;2023-03-29T07:04:37;1.60;;;1.50;;
12441;SDS011;6285;48.804;9.220;2023-03-29T07:07:05;3.78;;;1.85;;
12441;SDS011;6285;48.804;9.220;2023-03-29T07:09:43;3.58;;;1.90;;
12441;SDS011;6285;48.804;9.220;2023-03-29T07:12:19;3.75;;;2.20;;
12441;SDS011;6285;48.804;9.220;2023-03-29T07:14:46;4.18;;;1.90;;
12441;SDS011;6285;48.804;9.220;2023-03-29T07:17:13;7.50;;;2.35;;
12441;SDS011;6285;48.804;9.220;2023-03-29T07:19:40;3.95;;;2.80;;
12441;SDS011;6285;48.804;9.220;2023-03-29T07:22:07;8.88;;;2.95;;
12441;SDS011;6285;48.804;9.220;2023-03-29T07:24:34;5.75;;;2.80;;
12441;SDS011;6285;48.804;9.220;2023-03-29T07:27:02;6.13;;;2.50;;
12441;SDS011;6285;48.804;9.220;2023-03-29T07:29:30;4.40;;;2.25;;
12441;SDS011;6285;48.804;9.220;2023-03-29T07:31:57;3.53;;;2.25;;
12441;SDS011;6285;48.804;9.220;2023-03-29T07:34:24;5.97;;;2.50;;
12441;SDS011;6285;48.804;9.220;2023-03-29T07:36:54;7.25;;;2.55;;
12441;SDS011;6285;48.804;9.220;2023-03-29T07:39:21;3.67;;;2.55;;
12441;SDS011;6285;48.804;9.220;2023-03-29T07:41:50;6.72;;;2.80;;
12441;SDS011;6285;48.804;9.220;2023-03-29T07:44:17;5.78;;;2.70;;
12441;SDS011;6285;48.804;9.220;2023-03-29T07:46:46;5.72;;;2.63;;
12441;SDS011;6285;48.804;9.220;2023-03-29T07:49:13;7.10;;;2.38;;
12441;SDS011;6285;48.804;9.220;2023-03-29T07:51:40;7.45;;;2.80;;
12441;SDS011;6285;48.804;9.220;2023-03-29T07:54:07;4.25;;;2.60;;
12441;SDS011;6285;48.804;9.220;2023-03-29T07:56:34;4.43;;;2.50;;
12441;SDS011;6285;48.804;9.220;2023-03-29T07:59:02;3.95;;;2.30;;
12441;SDS011;6285;48.804;9.220;2023-03-29T08:01:29;5.55;;;2.47;;
12441;SDS011;6285;48.804;9.220;2023-03-29T08:03:58;5.43;;;2.40;;
12441;SDS011;6285;48.804;9.220;2023-03-29T08:06:25;6.07;;;2.50;;
12441;SDS011;6285;48.804;9.220;2023-03-29T08:08:52;6.70;;;2.70;;
12441;SDS011;6285;48.804;9.220;2023-03-29T08:11:19;6.00;;;2.50;;
12441;SDS011;6285;48.804;9.220;2023-03-29T08:13:46;6.47;;;2.75;;
12441;SDS011;6285;48.804;9.220;2023-03-29T08:16:13;6.82;;;2.28;;
12441;SDS011;6285;48.804;9.220;2023-03-29T08:18:40;4.15;;;2.00;;
12441;SDS011;6285;48.804;9.220;2023-03-29T08:21:09;13.05;;;2.58;;
12441;SDS011;6285;48.804;9.220;2023-03-29T08:23:38;6.57;;;2.20;;
12441;SDS011;6285;48.804;9.220;2023-03-29T08:26:06;5.13;;;2.05;;
12441;SDS011;6285;48.804;9.220;2023-03-29T08:28:33;7.18;;;2.70;;
12441;SDS011;6285;48.804;9.220;2023-03-29T08:31:00;4.70;;;1.90;;
12441;SDS011;6285;48.804;9.220;2023-03-29T08:33:27;3.05;;;1.70;;
12441;SDS011;6285;48.804;9.220;2023-03-29T08:35:55;2.97;;;1.70;;
12441;SDS011;6285;48.804;9.220;2023-03-29T08:38:23;5.60;;;1.95;;
12441;SDS011;6285;48.804;9.220;2023-03-29T08:40:51;6.78;;;1.75;;
12441;SDS011;6285;48.804;9.220;2023-03-29T08:46:16;7.10;;;2.22;;
12441;SDS011;6285;48.804;9.220;2023-03-29T08:48:46;5.82;;;2.05;;
12441;SDS011;6285;48.804;9.220;2023-03-29T08:51:16;5.43;;;2.08;;
12441;SDS011;6285;48.804;9.220;2023-03-29T08:53:47;3.70;;;2.20;;
12441;SDS011;6285;48.804;9.220;2023-03-29T08:56:17;6.63;;;3.00;;
12441;SDS011;6285;48.804;9.220;2023-03-29T08:58:46;2.90;;;2.10;;
12441;SDS011;6285;48.804;9.220;2023-03-29T09:01:15;4.88;;;2.00;;
12441;SDS011;6285;48.804;9.220;2023-03-29T09:03:43;4.70;;;2.30;;
12441;SDS011;6285;48.804;9.220;2023-03-29T09:06:12;4.65;;;2.20;;
12441;SDS011;6285;48.804;9.220;2023-03-29T09:08:39;5.05;;;2.00;;
12441;SDS011;6285;48.804;9.220;2023-03-29T09:11:20;2.50;;;1.75;;
12441;SDS011;6285;48.804;9.220;2023-03-29T09:13:50;2.70;;;1.48;;
12441;SDS011;6285;48.804;9.220;2023-03-29T09:16:22;3.60;;;1.52;;
12441;SDS011;6285;48.804;9.220;2023-03-29T09:18:55;3.83;;;2.08;;
12441;SDS011;6285;48.804;9.220;2023-03-29T09:21:29;5.15;;;2.10;;
12441;SDS011;6285;48.804;9.220;2023-03-29T09:24:12;4.55;;;2.63;;
12441;SDS011;6285;48.804;9.220;2023-03-29T09:26:44;3.72;;;2.13;;
12441;SDS011;6285;48.804;9.220;2023-03-29T09:29:18;5.95;;;2.25;;
12441;SDS011;6285;48.804;9.220;2023-03-29T09:31:49;5.05;;;2.08;;
12441;SDS011;6285;48.804;9.220;2023-03-29T09:34:17;4.28;;;2.03;;
12441;SDS011;6285;48.804;9.220;2023-03-29T09:36:48;1.55;;;1.40;;
12441;SDS011;6285;48.804;9.220;2023-03-29T09:39:16;4.20;;;1.70;;
12441;SDS011;6285;48.804;9.220;2023-03-29T09:41:47;6.55;;;1.90;;
12441;SDS011;6285;48.804;9.220;2023-03-29T09:44:17;5.20;;;1.75;;
12441;SDS011;6285;48.804;9.220;2023-03-29T09:46:48;3.45;;;2.28;;
12441;SDS011;6285;48.804;9.220;2023-03-29T09:49:19;7.43;;;2.10;;
12441;SDS011;6285;48.804;9.220;2023-03-29T09:51:48;5.70;;;1.88;;
12441;SDS011;6285;48.804;9.220;2023-03-29T09:54:15;4.70;;;1.75;;
12441;SDS011;6285;48.804;9.220;2023-03-29T09:56:42;4.22;;;2.00;;
12441;SDS011;6285;48.804;9.220;2023-03-29T09:59:11;3.33;;;2.13;;
12441;SDS011;6285;48.804;9.220;2023-03-29T10:01:38;7.47;;;2.20;;
12441;SDS011;6285;48.804;9.220;2023-03-29T10:04:07;5.18;;;2.20;;
12441;SDS011;6285;48.804;9.220;2023-03-29T10:06:35;2.42;;;1.67;;
12441;SDS011;6285;48.804;9.220;2023-03-29T10:09:03;9.15;;;2.20;;
12441;SDS011;6285;48.804;9.220;2023-03-29T10:11:39;4.88;;;1.88;;
12441;SDS011;6285;48.804;9.220;2023-03-29T10:14:13;3.60;;;1.83;;
12441;SDS011;6285;48.804;9.220;2023-03-29T10:16:42;5.10;;;2.25;;
12441;SDS011;6285;48.804;9.220;2023-03-29T10:19:17;6.53;;;2.10;;
12441;SDS011;6285;48.804;9.220;2023-03-29T10:21:45;5.55;;;2.10;;
12441;SDS011;6285;48.804;9.220;2023-03-29T10:24:12;2.45;;;1.50;;
12441;SDS011;6285;48.804;9.220;2023-03-29T10:26:44;1.52;;;1.20;;
12441;SDS011;6285;48.804;9.220;2023-03-29T10:29:12;4.43;;;1.58;;
12441;SDS011;6285;48.804;9.220;2023-03-29T10:31:39;3.20;;;1.52;;
12441;SDS011;6285;48.804;9.220;2023-03-29T10:34:07;3.25;;;1.73;;
12441;SDS011;6285;48.804;9.220;2023-03-29T10:36:37;3.08;;;1.33;;
12441;SDS011;6285;48.804;9.220;2023-03-29T10:39:06;2.55;;;1.40;;
12441;SDS011;6285;48.804;9.220;2023-03-29T10:41:33;4.00;;;1.50;;
12441;SDS011;6285;48.804;9.220;2023-03-29T10:44:01;4.47;;;1.60;;
12441;SDS011;6285;48.804;9.220;2023-03-29T10:46:30;3.55;;;1.50;;
12441;SDS011;6285;48.804;9.220;2023-03-29T10:49:00;2.40;;;1.85;;
12441;SDS011;6285;48.804;9.220;2023-03-29T10:51:30;3.45;;;1.60;;
12441;SDS011;6285;48.804;9.220;2023-03-29T10:53:58;3.03;;;1.77;;
12441;SDS011;6285;48.804;9.220;2023-03-29T10:56:28;2.35;;;1.85;;
12441;SDS011;6285;48.804;9.220;2023-03-29T10:59:07;3.03;;;1.35;;
12441;SDS011;6285;48.804;9.220;2023-03-29T11:01:41;4.38;;;1.67;;
12441;SDS011;6285;48.804;9.220;2023-03-29T11:04:15;4.55;;;1.90;;
12441;SDS011;6285;48.804;9.220;2023-03-29T11:06:49;6.75;;;1.80;;
12441;SDS011;6285;48.804;9.220;2023-03-29T11:09:19;4.00;;;1.75;;
12441;SDS011;6285;48.804;9.220;2023-03-29T11:14:37;2.53;;;1.52;;
12441;SDS011;6285;48.804;9.220;2023-03-29T11:17:10;4.28;;;2.00;;
12441;SDS011;6285;48.804;9.220;2023-03-29T11:19:54;3.15;;;1.60;;
12441;SDS011;6285;48.804;9.220;2023-03-29T11:22:23;1.67;;;1.48;;
12441;SDS011;6285;48.804;9.220;2023-03-29T11:24:59;1.92;;;1.40;;
12441;SDS011;6285;48.804;9.220;2023-03-29T11:27:37;4.15;;;1.63;;
12441;SDS011;6285;48.804;9.220;2023-03-29T11:30:12;1.60;;;1.20;;
12441;SDS011;6285;48.804;9.220;2023-03-29T11:32:49;3.03;;;2.00;;
12441;SDS011;6285;48.804;9.220;2023-03-29T11:35:21;2.80;;;1.70;;
12441;SDS011;6285;48.804;9.220;2023-03-29T11:38:03;1.80;;;1.40;;
12441;SDS011;6285;48.804;9.220;2023-03-29T11:40:42;3.50;;;1.70;;
12441;SDS011;6285;48.804;9.220;2023-03-29T11:43:12;3.45;;;1.30;;
12441;SDS011;6285;48.804;9.220;2023-03-29T11:45:41;2.65;;;1.45;;
12441;SDS011;6285;48.804;9.220;2023-03-29T11:48:12;2.38;;;1.67;;
12441;SDS011;6285;48.804;9.220;2023-03-29T11:50:42;2.38;;;1.63;;
12441;SDS011;6285;48.804;9.220;2023-03-29T11:53:13;3.00;;;1.55;;
12441;SDS011;6285;48.804;9.220;2023-03-29T11:55:43;3.38;;;1.67;;
12441;SDS011;6285;48.804;9.220;2023-03-29T11:58:11;2.30;;;1.70;;
12441;SDS011;6285;48.804;9.220;2023-03-29T12:00:43;3.58;;;1.70;;
12441;SDS011;6285;48.804;9.220;2023-03-29T12:03:13;3.92;;;2.00;;
12441;SDS011;6285;48.804;9.220;2023-03-29T12:05:44;6.60;;;2.30;;
12441;SDS011;6285;48.804;9.220;2023-03-29T12:08:14;4.30;;;1.60;;
12441;SDS011;6285;48.804;9.220;2023-03-29T12:10:42;3.63;;;1.73;;
12441;SDS011;6285;48.804;9.220;2023-03-29T12:13:13;5.38;;;1.77;;
12441;SDS011;6285;48.804;9.220;2023-03-29T12:15:43;1.92;;;1.50;;
12441;SDS011;6285;48.804;9.220;2023-03-29T12:18:15;3.05;;;1.40;;
12441;SDS011;6285;48.804;9.220;2023-03-29T12:20:43;5.57;;;1.40;;
12441;SDS011;6285;48.804;9.220;2023-03-29T12:23:13;2.65;;;1.80;;
12441;SDS011;6285;48.804;9.220;2023-03-29T12:25:43;6.38;;;1.65;;
12441;SDS011;6285;48.804;9.220;2023-03-29T12:28:19;3.50;;;1.77;;
12441;SDS011;6285;48.804;9.220;2023-03-29T12:30:51;2.88;;;1.38;;
12441;SDS011;6285;48.804;9.220;2023-03-29T12:36:15;3.80;;;1.60;;
12441;SDS011;6285;48.804;9.220;2023-03-29T12:38:45;4.13;;;2.00;;
12441;SDS011;6285;48.804;9.220;2023-03-29T12:41:14;2.00;;;1.20;;
12441;SDS011;6285;48.804;9.220;2023-03-29T12:43:42;2.22;;;1.30;;
12441;SDS011;6285;48.804;9.220;2023-03-29T12:46:13;2.28;;;1.13;;
12441;SDS011;6285;48.804;9.220;2023-03-29T12:48:43;1.73;;;1.10;;
12441;SDS011;6285;48.804;9.220;2023-03-29T12:51:12;2.30;;;1.05;;
12441;SDS011;6285;48.804;9.220;2023-03-29T12:53:42;2.15;;;1.10;;
12441;SDS011;6285;48.804;9.220;2023-03-29T12:56:11;2.20;;;1.05;;
12441;SDS011;6285;48.804;9.220;2023-03-29T12:58:48;1.83;;;0.90;;
12441;SDS011;6285;48.804;9.220;2023-03-29T13:01:23;3.28;;;1.33;;
12441;SDS011;6285;48.804;9.220;2023-03-29T13:03:51;3.38;;;1.40;;
12441;SDS011;6285;48.804;9.220;2023-03-29T13:06:28;2.15;;;1.70;;
12441;SDS011;6285;48.804;9.220;2023-03-29T13:08:58;2.42;;;1.00;;
12441;SDS011;6285;48.804;9.220;2023-03-29T13:11:28;4.18;;;1.48;;
12441;SDS011;6285;48.804;9.220;2023-03-29T13:13:58;3.65;;;1.60;;
12441;SDS011;6285;48.804;9.220;2023-03-29T13:16:29;2.10;;;1.15;;
12441;SDS011;6285;48.804;9.220;2023-03-29T13:19:07;4.95;;;1.20;;
12441;SDS011;6285;48.804;9.220;2023-03-29T13:21:39;1.60;;;1.17;;
12441;SDS011;6285;48.804;9.220;2023-03-29T13:24:20;3.20;;;1.10;;
12441;SDS011;6285;48.804;9.220;2023-03-29T13:26:52;1.60;;;1.20;;
12441;SDS011;6285;48.804;9.220;2023-03-29T13:29:34;4.57;;;1.90;;
12441;SDS011;6285;48.804;9.220;2023-03-29T13:32:16;2.55;;;1.17;;
12441;SDS011;6285;48.804;9.220;2023-03-29T13:34:45;1.48;;;1.10;;
12441;SDS011;6285;48.804;9.220;2023-03-29T13:37:20;2.47;;;1.10;;
12441;SDS011;6285;48.804;9.220;2023-03-29T13:39:50;3.13;;;1.30;;
12441;SDS011;6285;48.804;9.220;2023-03-29T13:42:18;4.50;;;1.42;;
12441;SDS011;6285;48.804;9.220;2023-03-29T13:44:46;3.58;;;1.23;;
12441;SDS011;6285;48.804;9.220;2023-03-29T13:47:26;1.92;;;1.10;;
12441;SDS011;6285;48.804;9.220;2023-03-29T13:49:55;1.90;;;0.90;;
12441;SDS011;6285;48.804;9.220;2023-03-29T13:52:25;2.35;;;1.17;;
12441;SDS011;6285;48.804;9.220;2023-03-29T13:54:56;3.08;;;1.50;;
12441;SDS011;6285;48.804;9.220;2023-03-29T13:57:29;2.50;;;1.30;;
12441;SDS011;6285;48.804;9.220;2023-03-29T13:59:58;5.07;;;1.30;;
12441;SDS011;6285;48.804;9.220;2023-03-29T14:02:36;4.85;;;1.48;;
12441;SDS011;6285;48.804;9.220;2023-03-29T14:05:04;4.07;;;1.23;;
12441;SDS011;6285;48.804;9.220;2023-03-29T14:07:32;3.05;;;1.52;;
12441;SDS011;6285;48.804;9.220;2023-03-29T14:10:04;2.40;;;1.45;;
12441;SDS011;6285;48.804;9.220;2023-03-29T14:12:34;3.65;;;1.45;;
12441;SDS011;6285;48.804;9.220;2023-03-29T14:15:04;2.33;;;1.02;;
12441;SDS011;6285;48.804;9.220;2023-03-29T14:17:34;1.55;;;1.08;;
12441;SDS011;6285;48.804;9.220;2023-03-29T14:20:01;3.42;;;1.38;;
12441;SDS011;6285;48.804;9.220;2023-03-29T14:22:32;3.40;;;1.65;;
12441;SDS011;6285;48.804;9.220;2023-03-29T14:25:01;1.95;;;1.20;;
12441;SDS011;6285;48.804;9.220;2023-03-29T14:27:37;2.55;;;1.50;;
12441;SDS011;6285;48.804;9.220;2023-03-29T14:30:16;4.93;;;1.60;;
12441;SDS011;6285;48.804;9.220;2023-03-29T14:32:44;2.80;;;1.35;;
12441;SDS011;6285;48.804;9.220;2023-03-29T14:35:10;5.00;;;2.40;;
12441;SDS011;6285;48.804;9.220;2023-03-29T14:37:37;3.97;;;1.70;;
12441;SDS011;6285;48.804;9.220;2023-03-29T14:40:11;4.65;;;1.98;;
12441;SDS011;6285;48.804;9.220;2023-03-29T14:42:43;3.42;;;1.50;;
12441;SDS011;6285;48.804;9.220;2023-03-29T14:45:11;2.85;;;1.30;;
12441;SDS011;6285;48.804;9.220;2023-03-29T14:47:39;3.80;;;1.30;;
12441;SDS011;6285;48.804;9.220;2023-03-29T14:50:08;3.55;;;1.50;;
12441;SDS011;6285;48.804;9.220;2023-03-29T14:52:42;3.55;;;1.33;;
12441;SDS011;6285;48.804;9.220;2023-03-29T14:55:10;3.47;;;1.20;;
12441;SDS011;6285;48.804;9.220;2023-03-29T14:57:38;3.42;;;1.20;;
12441;SDS011;6285;48.804;9.220;2023-03-29T15:00:15;3.95;;;1.50;;
12441;SDS011;6285;48.804;9.220;2023-03-29T15:02:47;1.48;;;1.05;;
12441;SDS011;6285;48.804;9.220;2023-03-29T15:05:23;2.33;;;1.08;;
12441;SDS011;6285;48.804;9.220;2023-03-29T15:07:51;3.15;;;1.30;;
12441;SDS011;6285;48.804;9.220;2023-03-29T15:10:21;1.58;;;1.10;;
12441;SDS011;6285;48.804;9.220;2023-03-29T15:12:48;3.58;;;1.55;;
12441;SDS011;6285;48.804;9.220;2023-03-29T15:15:16;2.97;;;1.25;;
12441;SDS011;6285;48.804;9.220;2023-03-29T15:17:43;2.67;;;1.25;;
12441;SDS011;6285;48.804;9.220;2023-03-29T15:20:12;2.13;;;1.17;;
12441;SDS011;6285;48.804;9.220;2023-03-29T15:22:50;1.85;;;1.00;;